Time;durP1;ratioP1;P1;durP2;ratioP2;P2;SDS_P1;SDS_P2;PMS_P1;PMS_P2;Temp;Humidity;BMP_temperature;BMP_pressure;BME280_temperature;BME280_humidity;BME280_pressure;Samples;Min_cycle;Max_cycle;Signal;HPM_P1;HPM_P2
2023/02/28 00:04:36;;;;;;;1.23;0.90;;;;;;;;;;10213295;28;20121;-87
2023/02/28 00:09:42;;;;;;;1.52;1.00;;;;;;;;;;10227940;28;20050;-82
2023/02/28 00:14:46;;;;;;;2.00;1.05;;;;;;;;;;10224730;28;20054;-82
2023/02/28 00:19:50;;;;;;;1.45;0.90;;;;;;;;;;10228606;28;20051;-80
2023/02/28 00:24:53;;;;;;;0.80;0.80;;;;;;;;;;10209209;28;20471;-82
2023/02/28 00:30:00;;;;;;;0.70;0.70;;;;;;;;;;10213299;28;20070;-86
2023/02/28 00:35:07;;;;;;;1.20;1.10;;;;;;;;;;10211970;28;20047;-80
2023/02/28 00:40:12;;;;;;;0.80;0.77;;;;;;;;;;10206396;28;20055;-81
2023/02/28 00:45:19;;;;;;;1.40;1.25;;;;;;;;;;10204114;28;20055;-82
2023/02/28 00:50:23;;;;;;;1.33;1.23;;;;;;;;;;10205396;28;20044;-82
2023/02/28 00:55:26;;;;;;;1.48;0.85;;;;;;;;;;10215816;28;20065;-83
2023/02/28 01:00:31;;;;;;;1.50;1.20;;;;;;;;;;10214200;28;20595;-84
2023/02/28 01:05:35;;;;;;;2.15;1.20;;;;;;;;;;10226809;28;20051;-84
2023/02/28 01:10:38;;;;;;;1.75;1.30;;;;;;;;;;10230458;28;20421;-80
2023/02/28 01:15:50;;;;;;;2.47;1.08;;;;;;;;;;10212822;28;20051;-81
2023/02/28 01:20:55;;;;;;;2.03;1.30;;;;;;;;;;10207602;28;20059;-80
2023/02/28 01:25:58;;;;;;;2.28;1.42;;;;;;;;;;10223451;28;20051;-80
2023/02/28 01:31:03;;;;;;;1.92;1.20;;;;;;;;;;10208690;28;20078;-84
2023/02/28 01:36:10;;;;;;;2.88;1.20;;;;;;;;;;10218275;28;20047;-83
2023/02/28 01:41:19;;;;;;;2.45;1.60;;;;;;;;;;10227863;28;20071;-82
2023/02/28 01:46:24;;;;;;;1.65;1.20;;;;;;;;;;10203998;28;20051;-81
2023/02/28 01:51:34;;;;;;;2.25;1.50;;;;;;;;;;10219204;28;20059;-82
2023/02/28 01:56:42;;;;;;;2.88;1.48;;;;;;;;;;10220652;28;20050;-86
2023/02/28 02:01:47;;;;;;;2.33;1.48;;;;;;;;;;10220625;28;20608;-81
2023/02/28 02:06:51;;;;;;;3.17;1.63;;;;;;;;;;10213417;28;20613;-82
2023/02/28 02:11:57;;;;;;;1.97;1.53;;;;;;;;;;10226169;28;20051;-84
2023/02/28 02:17:17;;;;;;;1.65;1.50;;;;;;;;;;10227390;28;20051;-87
2023/02/28 02:22:47;;;;;;;2.60;2.05;;;;;;;;;;10206503;28;20554;-80
2023/02/28 02:28:17;;;;;;;1.95;1.50;;;;;;;;;;10224198;28;20047;-80
2023/02/28 02:33:53;;;;;;;3.08;1.70;;;;;;;;;;10225865;28;20057;-84
2023/02/28 02:39:03;;;;;;;1.83;1.70;;;;;;;;;;10194281;28;20039;-84
2023/02/28 02:44:14;;;;;;;2.22;1.45;;;;;;;;;;10216011;28;20096;-80
2023/02/28 02:49:22;;;;;;;2.20;1.48;;;;;;;;;;10222270;28;20054;-81
2023/02/28 02:54:29;;;;;;;1.55;1.45;;;;;;;;;;10231097;28;20244;-82
2023/02/28 02:59:34;;;;;;;2.00;1.50;;;;;;;;;;10230370;28;20043;-83
2023/02/28 03:04:43;;;;;;;1.65;1.55;;;;;;;;;;10216550;28;20794;-82
2023/02/28 03:09:53;;;;;;;1.90;1.52;;;;;;;;;;10206556;28;20252;-83
2023/02/28 03:15:05;;;;;;;1.88;1.33;;;;;;;;;;10231189;28;20130;-85
2023/02/28 03:20:16;;;;;;;2.80;1.88;;;;;;;;;;10220133;28;20058;-81
2023/02/28 03:25:28;;;;;;;2.03;1.63;;;;;;;;;;10209984;28;20082;-81
2023/02/28 03:30:39;;;;;;;2.08;1.50;;;;;;;;;;10200115;28;20050;-80
2023/02/28 03:35:46;;;;;;;2.15;1.55;;;;;;;;;;10231804;28;20043;-81
2023/02/28 03:40:58;;;;;;;1.80;1.60;;;;;;;;;;10242070;28;20118;-81
2023/02/28 03:46:07;;;;;;;2.20;1.60;;;;;;;;;;10211407;28;20419;-88
2023/02/28 03:51:14;;;;;;;1.75;1.58;;;;;;;;;;10231515;28;20040;-80
2023/02/28 03:56:22;;;;;;;2.47;1.98;;;;;;;;;;10200793;28;20077;-87
2023/02/28 04:01:32;;;;;;;2.13;1.60;;;;;;;;;;10230415;28;20466;-86
2023/02/28 04:06:36;;;;;;;1.75;1.58;;;;;;;;;;10211871;28;20057;-88
2023/02/28 04:11:44;;;;;;;1.92;1.60;;;;;;;;;;10225579;28;20728;-84
2023/02/28 04:16:47;;;;;;;3.30;1.50;;;;;;;;;;10214261;28;20150;-83
2023/02/28 04:21:53;;;;;;;1.58;1.40;;;;;;;;;;10230592;28;20086;-86
2023/02/28 04:26:58;;;;;;;2.17;1.97;;;;;;;;;;10216335;28;20482;-84
2023/02/28 04:32:02;;;;;;;3.75;2.03;;;;;;;;;;10226715;28;20043;-83
2023/02/28 04:37:06;;;;;;;2.58;1.98;;;;;;;;;;10223437;28;20054;-81
2023/02/28 04:42:17;;;;;;;1.92;1.70;;;;;;;;;;10202558;28;20142;-81
2023/02/28 04:47:21;;;;;;;1.65;1.55;;;;;;;;;;10213376;28;20046;-85
2023/02/28 04:52:24;;;;;;;2.00;1.80;;;;;;;;;;10234460;28;20089;-84
2023/02/28 04:57:29;;;;;;;1.85;1.45;;;;;;;;;;10229401;28;20043;-83
2023/02/28 05:02:35;;;;;;;2.03;1.60;;;;;;;;;;10216591;28;20047;-85
2023/02/28 05:07:39;;;;;;;1.70;1.60;;;;;;;;;;10227357;28;20107;-86
2023/02/28 05:12:43;;;;;;;2.33;2.03;;;;;;;;;;10227422;28;20047;-85
2023/02/28 05:17:47;;;;;;;2.50;2.03;;;;;;;;;;10233303;28;20137;-84
2023/02/28 05:22:51;;;;;;;2.13;1.70;;;;;;;;;;10232259;28;20051;-85
2023/02/28 05:27:56;;;;;;;3.03;2.30;;;;;;;;;;10203301;28;20047;-82
2023/02/28 05:33:00;;;;;;;2.85;2.00;;;;;;;;;;10205874;28;20673;-83
2023/02/28 05:38:03;;;;;;;2.13;1.77;;;;;;;;;;10209217;28;20223;-84
2023/02/28 05:43:11;;;;;;;4.00;2.20;;;;;;;;;;10221200;28;20675;-84
2023/02/28 05:48:15;;;;;;;4.28;2.15;;;;;;;;;;10218000;28;20051;-84
2023/02/28 05:53:18;;;;;;;2.42;2.10;;;;;;;;;;10232941;28;20051;-84
2023/02/28 05:58:25;;;;;;;4.30;2.13;;;;;;;;;;10219423;28;20052;-88
2023/02/28 06:03:28;;;;;;;3.85;2.03;;;;;;;;;;10236032;28;20047;-84
2023/02/28 06:08:32;;;;;;;2.20;1.73;;;;;;;;;;10236419;28;20058;-86
2023/02/28 06:13:37;;;;;;;2.30;2.10;;;;;;;;;;10237830;28;20051;-83
2023/02/28 06:18:41;;;;;;;2.53;1.90;;;;;;;;;;10239653;28;20047;-87
2023/02/28 06:23:44;;;;;;;4.70;2.50;;;;;;;;;;10233658;28;20071;-82
2023/02/28 06:28:49;;;;;;;4.60;2.10;;;;;;;;;;10230870;28;20053;-82
2023/02/28 06:33:53;;;;;;;3.15;2.33;;;;;;;;;;10232503;28;20047;-83
2023/02/28 06:38:56;;;;;;;4.32;2.20;;;;;;;;;;10223933;28;20051;-83
2023/02/28 06:44:01;;;;;;;2.85;2.17;;;;;;;;;;10213826;28;21132;-82
2023/02/28 06:49:04;;;;;;;2.47;1.95;;;;;;;;;;10212377;28;20051;-85
2023/02/28 06:54:09;;;;;;;3.10;2.28;;;;;;;;;;10214150;28;20051;-86
2023/02/28 06:59:14;;;;;;;3.13;2.03;;;;;;;;;;10238740;28;20051;-87
2023/02/28 07:04:17;;;;;;;2.38;1.70;;;;;;;;;;10236313;28;20058;-84
2023/02/28 07:09:21;;;;;;;3.00;1.60;;;;;;;;;;10206998;28;20054;-83
2023/02/28 07:14:25;;;;;;;2.60;1.88;;;;;;;;;;10224046;28;20061;-82
2023/02/28 07:19:29;;;;;;;2.42;1.90;;;;;;;;;;10270088;23;21416;-80
2023/02/28 07:24:32;;;;;;;2.97;2.20;;;;;;;;;;10328991;28;20053;-79
2023/02/28 07:29:38;;;;;;;1.80;1.70;;;;;;;;;;10315655;28;20465;-82
2023/02/28 07:34:41;;;;;;;3.10;2.40;;;;;;;;;;10316127;28;20089;-81
2023/02/28 07:39:44;;;;;;;4.40;2.42;;;;;;;;;;10318107;28;20763;-82
2023/02/28 07:44:51;;;;;;;3.15;2.45;;;;;;;;;;10306951;28;20153;-80
2023/02/28 07:49:55;;;;;;;2.42;2.10;;;;;;;;;;10301549;28;20050;-80
2023/02/28 07:54:58;;;;;;;4.18;3.08;;;;;;;;;;10298854;28;20057;-80
2023/02/28 08:00:03;;;;;;;4.10;2.45;;;;;;;;;;10293163;28;20065;-81
2023/02/28 08:05:13;;;;;;;2.95;2.25;;;;;;;;;;10311668;28;20261;-81
2023/02/28 08:10:17;;;;;;;3.17;2.35;;;;;;;;;;10291947;28;20034;-81
2023/02/28 08:15:22;;;;;;;3.05;2.15;;;;;;;;;;10292024;28;20553;-81
2023/02/28 08:20:26;;;;;;;2.90;2.13;;;;;;;;;;10309369;28;20046;-81
2023/02/28 08:25:30;;;;;;;3.80;2.13;;;;;;;;;;10293876;28;20046;-82
2023/02/28 08:30:35;;;;;;;3.25;2.22;;;;;;;;;;10293310;28;20577;-81
2023/02/28 08:35:38;;;;;;;3.17;2.47;;;;;;;;;;10294958;28;20050;-81
2023/02/28 08:40:42;;;;;;;3.70;2.50;;;;;;;;;;10300383;28;20049;-81
2023/02/28 08:45:47;;;;;;;4.07;2.78;;;;;;;;;;10312804;28;20057;-82
2023/02/28 08:50:57;;;;;;;3.55;2.30;;;;;;;;;;10313050;28;20038;-81
2023/02/28 08:56:10;;;;;;;3.80;2.15;;;;;;;;;;10295955;28;20521;-81
2023/02/28 09:01:17;;;;;;;3.00;2.45;;;;;;;;;;10295401;28;20133;-81
2023/02/28 09:06:22;;;;;;;4.63;2.92;;;;;;;;;;10291425;28;20065;-81
2023/02/28 09:11:26;;;;;;;2.83;2.40;;;;;;;;;;10292079;28;20106;-82
2023/02/28 09:16:31;;;;;;;5.30;2.80;;;;;;;;;;10300331;28;20070;-82
2023/02/28 09:21:35;;;;;;;3.35;2.13;;;;;;;;;;10300955;28;20125;-82
2023/02/28 09:26:39;;;;;;;4.25;2.55;;;;;;;;;;10319819;28;20073;-81
2023/02/28 09:31:46;;;;;;;3.97;2.20;;;;;;;;;;10300526;28;20050;-81
2023/02/28 09:36:50;;;;;;;2.40;1.80;;;;;;;;;;10299377;28;20046;-80
2023/02/28 09:41:55;;;;;;;4.47;2.72;;;;;;;;;;10304132;28;20085;-82
2023/02/28 09:47:05;;;;;;;5.70;3.10;;;;;;;;;;10314892;28;20039;-81
2023/02/28 09:52:14;;;;;;;3.83;2.50;;;;;;;;;;10298976;28;20043;-82
2023/02/28 09:57:24;;;;;;;2.75;2.00;;;;;;;;;;10299057;28;20898;-82
2023/02/28 10:02:47;;;;;;;2.20;2.00;;;;;;;;;;10300517;28;20050;-82
2023/02/28 10:08:01;;;;;;;3.42;2.60;;;;;;;;;;10313961;28;20689;-82
2023/02/28 10:13:12;;;;;;;2.78;2.35;;;;;;;;;;10293058;28;20062;-81
2023/02/28 10:18:24;;;;;;;5.07;3.03;;;;;;;;;;10316451;28;20072;-81
2023/02/28 10:23:32;;;;;;;3.97;2.50;;;;;;;;;;10298621;28;20042;-80
2023/02/28 10:28:36;;;;;;;3.72;2.72;;;;;;;;;;10304490;28;20046;-81
2023/02/28 10:33:41;;;;;;;4.78;2.72;;;;;;;;;;10320821;28;20039;-81
2023/02/28 10:38:45;;;;;;;3.03;2.30;;;;;;;;;;10305363;28;20042;-80
2023/02/28 10:43:49;;;;;;;3.92;2.10;;;;;;;;;;10305922;28;20129;-80
2023/02/28 10:49:04;;;;;;;3.88;2.30;;;;;;;;;;10306305;28;20057;-80
2023/02/28 10:54:17;;;;;;;4.57;3.30;;;;;;;;;;10318799;28;20035;-80
2023/02/28 10:59:31;;;;;;;3.75;2.35;;;;;;;;;;10307264;28;20110;-80
2023/02/28 11:04:39;;;;;;;4.18;1.95;;;;;;;;;;10324294;28;20065;-80
2023/02/28 11:09:47;;;;;;;3.05;2.45;;;;;;;;;;10315497;28;20050;-81
2023/02/28 11:14:52;;;;;;;2.97;2.15;;;;;;;;;;10298953;28;20129;-80
2023/02/28 11:19:59;;;;;;;2.85;2.30;;;;;;;;;;10301892;28;20260;-79
2023/02/28 11:25:08;;;;;;;4.38;3.00;;;;;;;;;;10312092;28;20058;-80
2023/02/28 11:30:29;;;;;;;4.43;2.60;;;;;;;;;;10320526;28;20056;-80
2023/02/28 11:35:38;;;;;;;4.90;2.97;;;;;;;;;;10295741;28;20057;-80
2023/02/28 11:40:47;;;;;;;5.90;2.83;;;;;;;;;;10295453;28;20052;-80
2023/02/28 11:46:07;;;;;;;6.28;3.85;;;;;;;;;;10300946;28;20060;-79
2023/02/28 11:51:19;;;;;;;5.10;2.80;;;;;;;;;;10300071;28;20050;-79
2023/02/28 11:56:27;;;;;;;3.58;2.53;;;;;;;;;;10327798;28;20557;-79
2023/02/28 12:01:55;;;;;;;2.80;2.50;;;;;;;;;;10302282;28;20051;-80
2023/02/28 12:07:10;;;;;;;3.58;2.35;;;;;;;;;;10289942;28;20065;-82
2023/02/28 12:12:27;;;;;;;2.80;2.40;;;;;;;;;;10298771;28;20406;-82
2023/02/28 12:17:42;;;;;;;4.97;2.92;;;;;;;;;;10312327;28;20042;-82
2023/02/28 12:22:55;;;;;;;4.32;3.15;;;;;;;;;;10291979;28;20038;-83
2023/02/28 12:28:00;;;;;;;3.83;2.88;;;;;;;;;;10294305;28;20050;-82
2023/02/28 12:33:08;;;;;;;5.30;2.83;;;;;;;;;;10300463;28;20125;-81
2023/02/28 12:38:19;;;;;;;3.70;2.90;;;;;;;;;;10291435;28;20046;-82
2023/02/28 12:43:26;;;;;;;4.90;2.97;;;;;;;;;;10292961;28;20610;-82
2023/02/28 12:48:38;;;;;;;3.00;2.50;;;;;;;;;;10292587;28;20449;-82
2023/02/28 12:53:56;;;;;;;3.65;2.15;;;;;;;;;;10311046;28;20042;-81
2023/02/28 12:59:04;;;;;;;4.75;2.70;;;;;;;;;;10296287;28;20052;-81
2023/02/28 13:04:43;;;;;;;6.78;3.63;;;;;;;;;;10310002;28;20039;-81
2023/02/28 13:09:56;;;;;;;5.45;3.15;;;;;;;;;;10320577;28;20050;-81
2023/02/28 13:15:21;;;;;;;6.32;3.80;;;;;;;;;;10315506;28;20080;-80
2023/02/28 13:20:27;;;;;;;5.25;3.63;;;;;;;;;;10302256;28;20070;-80
2023/02/28 13:25:57;;;;;;;3.28;2.83;;;;;;;;;;10322647;28;20051;-82
2023/02/28 13:31:04;;;;;;;4.13;2.80;;;;;;;;;;10294570;28;20054;-81
2023/02/28 13:36:10;;;;;;;3.67;3.10;;;;;;;;;;10302499;28;20113;-81
2023/02/28 13:41:44;;;;;;;4.03;2.95;;;;;;;;;;10304180;28;20053;-81
2023/02/28 13:47:24;;;;;;;5.15;3.15;;;;;;;;;;10304603;28;20618;-82
2023/02/28 13:52:28;;;;;;;4.15;2.85;;;;;;;;;;10279407;28;20050;-82
2023/02/28 13:57:43;;;;;;;4.65;2.85;;;;;;;;;;10281952;28;20069;-83
2023/02/28 14:03:05;;;;;;;2.22;2.03;;;;;;;;;;10278771;28;20044;-83
2023/02/28 14:08:16;;;;;;;3.15;2.55;;;;;;;;;;10285254;28;20625;-84
2023/02/28 14:13:44;;;;;;;5.80;3.65;;;;;;;;;;10287936;28;20105;-83
2023/02/28 14:18:52;;;;;;;3.63;2.97;;;;;;;;;;10285777;28;20057;-81
2023/02/28 14:24:23;;;;;;;3.63;3.10;;;;;;;;;;10284141;28;20457;-83
2023/02/28 14:29:43;;;;;;;4.28;2.88;;;;;;;;;;10289225;28;20058;-83
2023/02/28 14:34:53;;;;;;;6.75;3.33;;;;;;;;;;10291986;28;20042;-83
2023/02/28 14:39:58;;;;;;;3.63;3.05;;;;;;;;;;10292599;28;20045;-82
2023/02/28 14:45:04;;;;;;;4.47;3.03;;;;;;;;;;10309223;28;20046;-82
2023/02/28 14:50:18;;;;;;;3.47;2.53;;;;;;;;;;10289467;28;20125;-83
2023/02/28 14:55:25;;;;;;;4.53;2.85;;;;;;;;;;10289750;28;20054;-83
2023/02/28 15:00:32;;;;;;;4.65;2.78;;;;;;;;;;10289512;28;20084;-83
2023/02/28 15:05:36;;;;;;;3.03;2.72;;;;;;;;;;10307206;28;20223;-83
2023/02/28 15:10:41;;;;;;;3.35;2.80;;;;;;;;;;10289476;28;20058;-84
2023/02/28 15:15:50;;;;;;;4.43;3.17;;;;;;;;;;10286715;28;20062;-83
2023/02/28 15:21:07;;;;;;;3.47;2.50;;;;;;;;;;10295699;28;20112;-83
2023/02/28 15:26:13;;;;;;;3.65;2.70;;;;;;;;;;10294391;28;20046;-83
2023/02/28 15:31:28;;;;;;;3.50;2.50;;;;;;;;;;10300261;28;20038;-83
2023/02/28 15:36:37;;;;;;;3.08;2.22;;;;;;;;;;10301247;28;20050;-82
2023/02/28 15:41:40;;;;;;;3.00;2.30;;;;;;;;;;10305340;28;20077;-81
2023/02/28 15:46:55;;;;;;;3.90;2.42;;;;;;;;;;10305808;28;20071;-82
2023/02/28 15:52:01;;;;;;;3.95;2.38;;;;;;;;;;10305440;28;20133;-82
2023/02/28 15:57:08;;;;;;;2.40;1.83;;;;;;;;;;10293285;28;20061;-82
2023/02/28 16:02:19;;;;;;;2.92;1.88;;;;;;;;;;10313699;28;20149;-82
2023/02/28 16:07:23;;;;;;;2.50;2.00;;;;;;;;;;10307352;28;20050;-83
2023/02/28 16:12:29;;;;;;;2.42;2.00;;;;;;;;;;10288028;28;20472;-81
2023/02/28 16:17:39;;;;;;;3.78;2.58;;;;;;;;;;10288793;28;20062;-82
2023/02/28 16:22:42;;;;;;;5.82;2.70;;;;;;;;;;10289661;28;20057;-82
2023/02/28 16:27:50;;;;;;;2.90;2.35;;;;;;;;;;10290622;28;20065;-81
2023/02/28 16:32:56;;;;;;;3.97;2.60;;;;;;;;;;10293938;28;20046;-82
2023/02/28 16:37:59;;;;;;;4.85;2.40;;;;;;;;;;10312186;28;20050;-80
2023/02/28 16:43:08;;;;;;;3.17;2.20;;;;;;;;;;10295559;28;20493;-81
2023/02/28 16:48:16;;;;;;;5.10;3.15;;;;;;;;;;10307045;28;20042;-79
2023/02/28 16:53:20;;;;;;;3.72;2.20;;;;;;;;;;10316987;28;20038;-81
2023/02/28 16:58:26;;;;;;;2.88;2.20;;;;;;;;;;10290735;28;20042;-80
2023/02/28 17:03:30;;;;;;;3.13;2.00;;;;;;;;;;10291213;28;20122;-81
2023/02/28 17:08:35;;;;;;;3.13;2.00;;;;;;;;;;10287419;28;20043;-80
2023/02/28 17:13:39;;;;;;;3.58;2.10;;;;;;;;;;10292876;28;20118;-81
2023/02/28 17:18:44;;;;;;;3.38;2.00;;;;;;;;;;10292683;28;20078;-81
2023/02/28 17:23:47;;;;;;;2.60;1.83;;;;;;;;;;10293430;28;20069;-81
2023/02/28 17:28:52;;;;;;;3.05;1.95;;;;;;;;;;10290402;28;20046;-81
2023/02/28 17:33:57;;;;;;;1.60;1.50;;;;;;;;;;10315941;28;20106;-81
2023/02/28 17:39:00;;;;;;;3.40;1.80;;;;;;;;;;10312949;28;20108;-80
2023/02/28 17:44:03;;;;;;;3.60;2.17;;;;;;;;;;10308502;28;20498;-80
2023/02/28 17:49:10;;;;;;;2.10;1.80;;;;;;;;;;10302609;28;20061;-80
2023/02/28 17:54:15;;;;;;;3.20;2.00;;;;;;;;;;10307777;28;20053;-80
2023/02/28 17:59:21;;;;;;;2.47;1.95;;;;;;;;;;10303763;28;20096;-79
2023/02/28 18:04:26;;;;;;;1.73;1.63;;;;;;;;;;10306580;28;20038;-81
2023/02/28 18:09:30;;;;;;;3.28;2.20;;;;;;;;;;10292659;28;20057;-80
2023/02/28 18:14:33;;;;;;;3.15;2.35;;;;;;;;;;10298861;28;20455;-80
2023/02/28 18:19:39;;;;;;;2.90;2.38;;;;;;;;;;10290149;28;20042;-80
2023/02/28 18:24:42;;;;;;;5.32;3.45;;;;;;;;;;10295207;28;20142;-81
2023/02/28 18:29:48;;;;;;;7.60;4.07;;;;;;;;;;10288226;28;20069;-81
2023/02/28 18:34:53;;;;;;;8.60;4.20;;;;;;;;;;10318668;28;20425;-80
2023/02/28 18:39:56;;;;;;;7.60;4.03;;;;;;;;;;10291474;28;20058;-80
2023/02/28 18:44:59;;;;;;;6.78;3.47;;;;;;;;;;10314585;28;21489;-80
2023/02/28 18:50:05;;;;;;;4.30;3.05;;;;;;;;;;10285873;28;20060;-80
2023/02/28 18:55:09;;;;;;;6.47;3.67;;;;;;;;;;10308773;28;20549;-78
2023/02/28 19:00:16;;;;;;;7.07;3.60;;;;;;;;;;10308198;28;20648;-80
2023/02/28 19:05:22;;;;;;;9.43;4.53;;;;;;;;;;10321610;28;20034;-79
2023/02/28 19:10:25;;;;;;;13.50;6.80;;;;;;;;;;10293111;28;20295;-79
2023/02/28 19:15:29;;;;;;;18.08;8.38;;;;;;;;;;10304045;28;20074;-79
2023/02/28 19:20:34;;;;;;;17.88;9.77;;;;;;;;;;10312300;28;20064;-80
2023/02/28 19:25:41;;;;;;;12.10;7.43;;;;;;;;;;10295872;28;20057;-80
2023/02/28 19:30:47;;;;;;;12.48;7.28;;;;;;;;;;10288241;28;20046;-80
2023/02/28 19:35:52;;;;;;;13.38;7.70;;;;;;;;;;10290768;28;20062;-78
2023/02/28 19:41:02;;;;;;;11.93;6.10;;;;;;;;;;10301720;28;20620;-80
2023/02/28 19:46:08;;;;;;;10.07;6.22;;;;;;;;;;10295769;28;20054;-80
2023/02/28 19:51:14;;;;;;;9.30;6.20;;;;;;;;;;10313293;28;20364;-80
2023/02/28 19:56:18;;;;;;;14.40;7.47;;;;;;;;;;10302218;28;20601;-80
2023/02/28 20:01:21;;;;;;;12.65;6.85;;;;;;;;;;10308580;28;20576;-79
2023/02/28 20:06:26;;;;;;;14.18;7.72;;;;;;;;;;10310980;28;20046;-80
2023/02/28 20:11:30;;;;;;;12.57;6.75;;;;;;;;;;10293782;28;20302;-79
2023/02/28 20:16:33;;;;;;;16.35;7.55;;;;;;;;;;10283610;28;20464;-80
2023/02/28 20:21:40;;;;;;;19.98;9.55;;;;;;;;;;10292408;28;20559;-80
2023/02/28 20:26:43;;;;;;;;;;;;;;;;;;10285562;28;20046;-79
2023/02/28 20:31:46;;;;;;;8.38;5.10;;;;;;;;;;10297688;28;19945;-78
2023/02/28 20:36:51;;;;;;;9.50;5.38;;;;;;;;;;10303396;28;20042;-78
2023/02/28 20:41:55;;;;;;;8.52;5.15;;;;;;;;;;10306534;28;20046;-79
2023/02/28 20:46:59;;;;;;;11.32;5.55;;;;;;;;;;10301902;28;20150;-80
2023/02/28 20:52:04;;;;;;;9.52;5.07;;;;;;;;;;10290940;28;20058;-79
2023/02/28 20:57:08;;;;;;;8.77;5.05;;;;;;;;;;10290585;28;20548;-79
2023/02/28 21:02:16;;;;;;;9.75;5.75;;;;;;;;;;10310822;28;20042;-80
2023/02/28 21:07:21;;;;;;;11.48;6.35;;;;;;;;;;10311387;28;20077;-80
2023/02/28 21:12:24;;;;;;;16.80;7.15;;;;;;;;;;10295310;28;20795;-79
2023/02/28 21:17:29;;;;;;;13.90;6.63;;;;;;;;;;10320817;28;20045;-79
2023/02/28 21:22:33;;;;;;;20.95;9.27;;;;;;;;;;10321734;28;20054;-80
2023/02/28 21:27:37;;;;;;;15.40;6.93;;;;;;;;;;10304799;28;20110;-80
2023/02/28 21:32:40;;;;;;;12.90;6.68;;;;;;;;;;10301341;28;20046;-80
2023/02/28 21:37:45;;;;;;;12.50;7.25;;;;;;;;;;10292569;28;20046;-80
2023/02/28 21:42:49;;;;;;;13.05;7.22;;;;;;;;;;10298329;28;20073;-80
2023/02/28 21:47:52;;;;;;;12.25;6.45;;;;;;;;;;10291666;28;20081;-80
2023/02/28 21:52:57;;;;;;;11.20;5.95;;;;;;;;;;10298198;28;20132;-80
2023/02/28 21:58:00;;;;;;;13.50;7.35;;;;;;;;;;10307326;23;20053;-86
2023/02/28 22:03:04;;;;;;;9.15;5.25;;;;;;;;;;10377388;28;20191;-86
2023/02/28 22:08:13;;;;;;;9.65;5.47;;;;;;;;;;10387730;28;20129;-86
2023/02/28 22:13:20;;;;;;;11.35;6.40;;;;;;;;;;10340149;28;20053;-85
2023/02/28 22:18:24;;;;;;;13.45;6.45;;;;;;;;;;10393372;28;20552;-85
2023/02/28 22:23:29;;;;;;;13.20;6.43;;;;;;;;;;10397436;28;20087;-85
2023/02/28 22:28:33;;;;;;;14.27;6.87;;;;;;;;;;10386993;28;20038;-85
2023/02/28 22:33:36;;;;;;;13.43;6.82;;;;;;;;;;10368675;28;20056;-83
2023/02/28 22:38:41;;;;;;;16.10;7.03;;;;;;;;;;10378657;28;20049;-82
2023/02/28 22:43:46;;;;;;;11.27;6.13;;;;;;;;;;10385144;28;20109;-82
2023/02/28 22:48:50;;;;;;;12.52;6.18;;;;;;;;;;10365990;28;20045;-83
2023/02/28 22:53:56;;;;;;;12.05;5.18;;;;;;;;;;10368166;28;20689;-83
2023/02/28 22:59:03;;;;;;;8.13;5.10;;;;;;;;;;10368478;28;20037;-82
2023/02/28 23:04:07;;;;;;;7.70;4.47;;;;;;;;;;10366828;28;20045;-82
2023/02/28 23:09:16;;;;;;;9.52;4.97;;;;;;;;;;10365598;28;20065;-83
2023/02/28 23:14:21;;;;;;;7.03;4.05;;;;;;;;;;10380156;28;20052;-83
2023/02/28 23:19:28;;;;;;;7.38;4.28;;;;;;;;;;10368864;28;20475;-83
2023/02/28 23:24:35;;;;;;;7.65;4.15;;;;;;;;;;10381318;28;20041;-84
2023/02/28 23:29:38;;;;;;;7.70;3.72;;;;;;;;;;10364825;28;20124;-85
2023/02/28 23:34:42;;;;;;;5.07;3.85;;;;;;;;;;10369271;28;20079;-85
2023/02/28 23:39:47;;;;;;;8.43;4.78;;;;;;;;;;10369580;28;20046;-83
2023/02/28 23:44:50;;;;;;;7.40;4.68;;;;;;;;;;10362221;28;20056;-83
2023/02/28 23:49:54;;;;;;;5.70;3.78;;;;;;;;;;10361863;28;20103;-83
2023/02/28 23:55:02;;;;;;;6.68;3.72;;;;;;;;;;10363329;28;20059;-82
